Time,TemperatureF,DewpointF,PressureIn,WindDirection,WindDirectionDegrees,WindSpeedMPH,WindSpeedGustMPH,Humidity,HourlyPrecipIn,Conditions,Clouds,dailyrainin,SoftwareType,DateUTC
2013-04-12 00:02:00,24.0,20.0,-100.00,SW,234,4.0,12.0,85,0.00,,,0.03,,2013-04-12 06:02:00,
2013-04-12 00:12:00,24.0,20.0,-100.00,SW,234,4.0,12.0,85,0.00,,,0.03,,2013-04-12 06:12:00,
2013-04-12 00:22:00,24.0,20.0,-100.00,SW,234,4.0,12.0,85,0.00,,,0.03,,2013-04-12 06:22:00,
2013-04-12 00:52:00,24.0,19.0,-100.00,WSW,244,7.0,11.0,80,0.00,,,0.03,,2013-04-12 06:52:00,
2013-04-12 01:02:00,24.0,19.0,-100.00,WSW,244,7.0,11.0,80,0.00,,,0.03,,2013-04-12 07:02:00,
2013-04-12 01:11:00,24.0,19.0,-100.00,WSW,244,7.0,11.0,80,0.00,,,0.03,,2013-04-12 07:11:00,
2013-04-12 01:22:00,24.0,19.0,-100.00,WSW,244,7.0,11.0,80,0.00,,,0.03,,2013-04-12 07:22:00,
2013-04-12 01:52:00,24.0,18.0,-100.00,WSW,246,9.0,15.0,79,0.00,,,0.03,,2013-04-12 07:52:00,
2013-04-12 02:03:00,24.0,18.0,-100.00,WSW,246,9.0,15.0,79,0.00,,,0.03,,2013-04-12 08:03:00,
2013-04-12 02:12:00,24.0,18.0,-100.00,WSW,246,9.0,15.0,79,0.00,,,0.03,,2013-04-12 08:12:00,
2013-04-12 02:22:00,24.0,18.0,-100.00,WSW,246,9.0,15.0,79,0.00,,,0.03,,2013-04-12 08:22:00,
2013-04-12 02:52:00,24.0,19.0,-100.00,West,262,10.0,17.0,82,0.00,,,0.03,,2013-04-12 08:52:00,
2013-04-12 03:02:00,24.0,19.0,-100.00,West,262,10.0,17.0,82,0.00,,,0.03,,2013-04-12 09:02:00,
2013-04-12 03:12:00,24.0,19.0,-100.00,West,262,10.0,17.0,82,0.00,,,0.03,,2013-04-12 09:12:00,
2013-04-12 03:22:00,24.0,19.0,-100.00,West,262,10.0,17.0,82,0.00,,,0.03,,2013-04-12 09:22:00,
2013-04-12 03:53:00,23.0,19.0,-100.00,WSW,253,10.0,16.0,83,0.00,,,-99.99,,2013-04-12 09:53:00,
2013-04-12 04:03:00,23.0,19.0,-100.00,WSW,253,10.0,16.0,83,0.00,,,-99.99,,2013-04-12 10:03:00,
2013-04-12 04:12:00,23.0,19.0,-100.00,WSW,253,10.0,16.0,83,0.00,,,-99.99,,2013-04-12 10:12:00,
2013-04-12 04:23:00,23.0,19.0,-100.00,WSW,253,10.0,16.0,83,0.00,,,-99.99,,2013-04-12 10:23:00,
2013-04-12 04:53:00,23.0,20.0,-100.00,WSW,257,7.0,15.0,89,0.00,,,0.03,,2013-04-12 10:53:00,
2013-04-12 05:02:00,23.0,20.0,-100.00,WSW,257,7.0,15.0,89,0.00,,,0.03,,2013-04-12 11:02:00,
2013-04-12 05:13:00,23.0,20.0,-100.00,WSW,257,7.0,15.0,89,0.00,,,0.03,,2013-04-12 11:13:00,
2013-04-12 05:22:00,23.0,20.0,-100.00,WSW,257,7.0,15.0,89,0.00,,,0.03,,2013-04-12 11:22:00,
2013-04-12 05:52:00,22.0,19.0,-100.00,West,261,5.0,10.0,88,0.00,,,0.03,,2013-04-12 11:52:00,
2013-04-12 06:02:00,22.0,19.0,-100.00,West,261,5.0,10.0,88,0.00,,,0.03,,2013-04-12 12:02:00,
2013-04-12 06:13:00,22.0,19.0,-100.00,West,261,5.0,10.0,88,0.00,,,0.03,,2013-04-12 12:13:00,
2013-04-12 06:22:00,22.0,19.0,-100.00,West,261,5.0,10.0,88,0.00,,,0.03,,2013-04-12 12:22:00,
2013-04-12 06:53:00,22.0,20.0,-100.00,West,272,4.0,11.0,90,0.00,,,0.03,,2013-04-12 12:53:00,
2013-04-12 07:03:00,22.0,20.0,-100.00,West,272,4.0,11.0,90,0.00,,,0.03,,2013-04-12 13:03:00,
2013-04-12 07:12:00,22.0,20.0,-100.00,West,272,4.0,11.0,90,0.00,,,0.03,,2013-04-12 13:12:00,
2013-04-12 07:22:00,22.0,20.0,-100.00,West,272,4.0,11.0,90,0.00,,,0.03,,2013-04-12 13:22:00,
2013-04-12 07:53:00,22.0,20.0,-100.00,West,263,8.0,12.0,91,0.00,,,0.03,,2013-04-12 13:53:00,
2013-04-12 08:03:00,22.0,20.0,-100.00,West,263,8.0,12.0,91,0.00,,,0.03,,2013-04-12 14:03:00,
2013-04-12 08:13:00,22.0,20.0,-100.00,West,263,8.0,12.0,91,0.00,,,0.03,,2013-04-12 14:13:00,
2013-04-12 08:23:00,22.0,20.0,-100.00,West,263,8.0,12.0,91,0.00,,,0.03,,2013-04-12 14:23:00,
2013-04-12 08:53:00,22.0,20.0,-100.00,WSW,252,6.0,12.0,90,0.00,,,0.03,,2013-04-12 14:53:00,
2013-04-12 09:03:00,22.0,20.0,-100.00,WSW,252,6.0,12.0,90,0.00,,,0.03,,2013-04-12 15:03:00,
2013-04-12 09:12:00,22.0,20.0,-100.00,WSW,252,6.0,12.0,90,0.00,,,0.03,,2013-04-12 15:12:00,
2013-04-12 09:22:00,22.0,20.0,-100.00,WSW,252,6.0,12.0,90,0.00,,,0.03,,2013-04-12 15:22:00,
2013-04-12 09:53:00,23.0,21.0,-100.00,West,269,9.0,12.0,90,0.00,,,-99.99,,2013-04-12 15:53:00,
2013-04-12 10:04:00,23.0,21.0,-100.00,West,269,9.0,12.0,90,0.00,,,-99.99,,2013-04-12 16:04:00,
2013-04-12 10:13:00,23.0,21.0,-100.00,West,269,9.0,12.0,90,0.00,,,-99.99,,2013-04-12 16:13:00,
2013-04-12 10:23:00,23.0,21.0,-100.00,West,269,9.0,12.0,90,0.00,,,-99.99,,2013-04-12 16:23:00,
2013-04-12 10:53:00,25.0,22.0,-100.00,West,271,7.0,13.0,89,0.00,,,0.03,,2013-04-12 16:53:00,
2013-04-12 11:03:00,25.0,22.0,-100.00,West,271,7.0,13.0,89,0.00,,,0.03,,2013-04-12 17:03:00,
2013-04-12 11:12:00,25.0,22.0,-100.00,West,271,7.0,13.0,89,0.00,,,0.03,,2013-04-12 17:12:00,
2013-04-12 11:23:00,25.0,22.0,-100.00,West,271,7.0,13.0,89,0.00,,,0.03,,2013-04-12 17:23:00,
2013-04-12 12:06:00,28.0,22.0,-100.00,West,277,15.0,24.0,77,0.00,,,0.02,,2013-04-12 18:06:00,
2013-04-12 12:19:00,28.0,22.0,-100.00,West,277,15.0,24.0,77,0.00,,,0.02,,2013-04-12 18:19:00,
2013-04-12 12:27:00,28.0,20.0,-100.00,WNW,302,14.0,22.0,73,0.03,,,0.05,,2013-04-12 18:27:00,
2013-04-12 13:26:00,28.0,20.0,-100.00,WNW,302,14.0,22.0,73,0.03,,,0.05,,2013-04-12 19:26:00,
2013-04-12 13:53:00,31.0,18.0,-100.00,West,279,13.0,18.0,59,0.04,,,0.09,,2013-04-12 19:53:00,
2013-04-12 14:02:00,31.0,18.0,-100.00,West,279,13.0,18.0,59,0.04,,,0.09,,2013-04-12 20:02:00,
2013-04-12 14:12:00,31.0,18.0,-100.00,West,279,13.0,18.0,59,0.04,,,0.09,,2013-04-12 20:12:00,
2013-04-12 14:22:00,31.0,18.0,-100.00,West,279,13.0,18.0,59,0.04,,,0.09,,2013-04-12 20:22:00,
2013-04-12 14:52:00,33.0,13.0,-100.00,West,276,12.0,25.0,44,0.01,,,0.10,,2013-04-12 20:52:00,
2013-04-12 15:02:00,33.0,13.0,-100.00,West,276,12.0,25.0,44,0.01,,,0.10,,2013-04-12 21:02:00,
2013-04-12 15:12:00,33.0,13.0,-100.00,West,276,12.0,25.0,44,0.01,,,0.10,,2013-04-12 21:12:00,
2013-04-12 15:22:00,33.0,13.0,-100.00,West,276,12.0,25.0,44,0.01,,,0.10,,2013-04-12 21:22:00,
2013-04-12 15:53:00,36.0,10.0,-100.00,West,278,16.0,29.0,33,0.00,,,0.10,,2013-04-12 21:53:00,
2013-04-12 16:02:00,36.0,10.0,-100.00,West,278,16.0,29.0,33,0.00,,,0.10,,2013-04-12 22:02:00,
2013-04-12 16:13:00,36.0,10.0,-100.00,West,278,16.0,29.0,33,0.00,,,0.10,,2013-04-12 22:13:00,
2013-04-12 16:22:00,36.0,10.0,-100.00,West,278,16.0,29.0,33,0.00,,,0.10,,2013-04-12 22:22:00,
2013-04-12 16:52:00,36.0,11.0,-100.00,WNW,293,10.0,21.0,35,0.00,,,0.08,,2013-04-12 22:52:00,
2013-04-12 17:03:00,36.0,11.0,-100.00,WNW,293,10.0,21.0,35,0.00,,,0.08,,2013-04-12 23:03:00,
2013-04-12 17:12:00,36.0,11.0,-100.00,WNW,293,10.0,21.0,35,0.00,,,0.08,,2013-04-12 23:12:00,
2013-04-12 17:22:00,36.0,11.0,-100.00,WNW,293,10.0,21.0,35,0.00,,,0.08,,2013-04-12 23:22:00,
2013-04-12 17:52:00,37.0,6.0,-100.00,WNW,292,15.0,26.0,27,0.00,,,0.08,,2013-04-12 23:52:00,
2013-04-12 18:02:00,37.0,6.0,-100.00,WNW,292,15.0,26.0,27,0.00,,,0.08,,2013-04-13 00:02:00,
2013-04-12 18:12:00,37.0,6.0,-100.00,WNW,292,15.0,26.0,27,0.00,,,0.08,,2013-04-13 00:12:00,
2013-04-12 18:22:00,37.0,6.0,-100.00,WNW,292,15.0,26.0,27,0.00,,,0.08,,2013-04-13 00:22:00,
2013-04-12 18:52:00,35.0,4.0,-100.00,WNW,300,12.0,20.0,27,0.00,,,0.08,,2013-04-13 00:52:00,
2013-04-12 19:02:00,35.0,4.0,-100.00,WNW,300,12.0,20.0,27,0.00,,,0.08,,2013-04-13 01:02:00,
2013-04-12 19:13:00,35.0,4.0,-100.00,WNW,300,12.0,20.0,27,0.00,,,0.08,,2013-04-13 01:13:00,
2013-04-12 19:22:00,35.0,4.0,-100.00,WNW,300,12.0,20.0,27,0.00,,,0.08,,2013-04-13 01:22:00,
2013-04-12 19:52:00,32.0,5.0,-100.00,WNW,288,9.0,19.0,31,0.00,,,0.08,,2013-04-13 01:52:00,
2013-04-12 20:02:00,32.0,5.0,-100.00,WNW,288,9.0,19.0,31,0.00,,,0.08,,2013-04-13 02:02:00,
2013-04-12 20:12:00,32.0,5.0,-100.00,WNW,288,9.0,19.0,31,0.00,,,0.08,,2013-04-13 02:12:00,
2013-04-12 20:22:00,32.0,5.0,-100.00,WNW,288,9.0,19.0,31,0.00,,,0.08,,2013-04-13 02:22:00,
2013-04-12 20:53:00,28.0,6.0,-100.00,WSW,244,4.0,11.0,39,0.00,,,0.08,,2013-04-13 02:53:00,
2013-04-12 21:02:00,28.0,6.0,-100.00,WSW,244,4.0,11.0,39,0.00,,,0.08,,2013-04-13 03:02:00,
2013-04-12 21:12:00,28.0,6.0,-100.00,WSW,244,4.0,11.0,39,0.00,,,0.08,,2013-04-13 03:12:00,
2013-04-12 21:22:00,28.0,6.0,-100.00,WSW,244,4.0,11.0,39,0.00,,,0.08,,2013-04-13 03:22:00,
2013-04-12 21:53:00,27.0,6.0,-100.00,SW,225,5.0,8.0,40,0.00,,,0.08,,2013-04-13 03:53:00,
2013-04-12 22:03:00,27.0,6.0,-100.00,SW,225,5.0,8.0,40,0.00,,,0.08,,2013-04-13 04:03:00,
2013-04-12 22:12:00,27.0,6.0,-100.00,SW,225,5.0,8.0,40,0.00,,,0.08,,2013-04-13 04:12:00,
2013-04-12 22:23:00,27.0,6.0,-100.00,SW,225,5.0,8.0,40,0.00,,,0.08,,2013-04-13 04:23:00,
2013-04-12 22:53:00,28.0,7.0,-100.00,SSW,209,8.0,11.0,40,0.00,,,0.08,,2013-04-13 04:53:00,
2013-04-12 23:02:00,28.0,7.0,-100.00,SSW,209,8.0,11.0,40,0.00,,,0.08,,2013-04-13 05:02:00,
2013-04-12 23:12:00,28.0,7.0,-100.00,SSW,209,8.0,11.0,40,0.00,,,0.08,,2013-04-13 05:12:00,
2013-04-12 23:22:00,28.0,7.0,-100.00,SSW,209,8.0,11.0,40,0.00,,,0.08,,2013-04-13 05:22:00,
2013-04-12 23:53:00,28.0,5.0,-100.00,SW,217,9.0,12.0,37,0.00,,,0.08,,2013-04-13 05:53:00,